Tracy-Clark, Nevada
Current Conditions -  °F | °C
As of 1:55 AM on Thursday 23 Oct 2014 (Local Time) from KRNO Reporting Station
Clear Clear  
Wind Chill: 53°   Ceiling: Unl
Heat Index: 53°   Visibility: 10mi
Dew Point: 28°   Wind: 5mph
Humidity: 38%   Direction: 320°NW
Pressure: 30.1"   Gusts: NA
Location:  39.5403°N, 119.672°W
Report Text: KRNO 230855Z 32004KT 10SM CLR 12/M02 A3010 RMK AO2 SLP160 T01171022 53000
Loading
Personal Weather Stations






























Interactive Weather Map
Tropical Storm Tracking
New forecast layout! Learn more

10-Day Weather Forecast

Advertisements
Track Severe Weather on mobile